Time;durP1;ratioP1;P1;durP2;ratioP2;P2;SDS_P1;SDS_P2;PMS_P1;PMS_P2;Temp;Humidity;BMP_temperature;BMP_pressure;BME280_temperature;BME280_humidity;BME280_pressure;Samples;Min_cycle;Max_cycle;Signal;HPM_P1;HPM_P2
2023/09/01 00:00:33;;;;;;;4.93;1.43;;;;;;;13.74;100.00;101150.59;4922186;29;20460;-77
2023/09/01 00:02:58;;;;;;;3.87;1.17;;;;;;;12.63;100.00;100972.81;4935332;28;20420;-76
2023/09/01 00:05:24;;;;;;;3.93;1.30;;;;;;;13.03;100.00;101045.44;4921345;29;20192;-77
2023/09/01 00:07:49;;;;;;;7.57;2.00;;;;;;;13.33;100.00;101151.69;4921176;29;20188;-77
2023/09/01 00:10:15;;;;;;;2.50;1.07;;;;;;;12.61;100.00;101052.94;4921491;29;20737;-78
2023/09/01 00:12:40;;;;;;;4.67;1.37;;;;;;;12.70;100.00;101075.06;4920271;29;20198;-76
2023/09/01 00:15:06;;;;;;;4.07;1.30;;;;;;;12.62;100.00;101038.44;4922596;29;20180;-77
2023/09/01 00:17:31;;;;;;;3.13;1.20;;;;;;;12.60;100.00;101067.44;4920190;29;20181;-76
2023/09/01 00:19:57;;;;;;;4.97;1.37;;;;;;;13.49;100.00;101184.66;4921174;29;20685;-77
2023/09/01 00:22:22;;;;;;;3.67;1.30;;;;;;;12.76;100.00;101067.03;4922287;29;20657;-77
2023/09/01 00:24:48;;;;;;;4.50;1.60;;;;;;;13.22;100.00;101167.63;4919749;29;20725;-77
2023/09/01 00:27:13;;;;;;;2.77;1.20;;;;;;;12.93;100.00;101133.88;4921437;29;20215;-77
2023/09/01 00:29:38;;;;;;;4.13;1.33;;;;;;;12.48;100.00;101093.28;4920597;29;20669;-77
2023/09/01 00:32:04;;;;;;;3.60;1.30;;;;;;;13.05;100.00;101167.25;4918686;29;20211;-77
2023/09/01 00:34:30;;;;;;;3.93;1.50;;;;;;;12.43;100.00;101088.50;4919020;29;20333;-77
2023/09/01 00:36:56;;;;;;;4.30;1.33;;;;;;;13.02;100.00;101197.28;4921114;29;20432;-77
2023/09/01 00:39:22;;;;;;;5.47;1.40;;;;;;;13.01;100.00;101214.47;4923530;29;20905;-77
2023/09/01 00:41:47;;;;;;;4.07;1.40;;;;;;;13.10;100.00;101224.84;4925457;29;20447;-77
2023/09/01 00:44:15;;;;;;;4.20;1.47;;;;;;;12.98;100.00;101206.81;4932697;29;20220;-77
2023/09/01 00:46:46;;;;;;;4.80;1.57;;;;;;;12.46;100.00;101149.16;4926137;29;20198;-77
2023/09/01 00:49:12;;;;;;;4.10;1.33;;;;;;;11.89;100.00;101084.03;4932380;29;20427;-76
2023/09/01 00:51:38;;;;;;;5.27;1.73;;;;;;;11.72;100.00;101049.44;4927060;29;20455;-77
2023/09/01 00:54:04;;;;;;;5.60;1.40;;;;;;;12.41;100.00;101129.09;4924640;29;20443;-76
2023/09/01 00:56:29;;;;;;;4.60;1.40;;;;;;;12.73;100.00;101185.00;4926261;29;20196;-77
2023/09/01 00:58:55;;;;;;;3.67;1.20;;;;;;;12.03;100.00;101104.56;4926926;29;20478;-77
2023/09/01 01:01:20;;;;;;;3.13;1.33;;;;;;;12.56;100.00;101220.41;4925151;29;20213;-77
2023/09/01 01:03:49;;;;;;;4.57;1.43;;;;;;;12.73;100.00;101236.16;4923864;29;20561;-77
2023/09/01 01:06:39;;;;;;;4.13;1.10;;;;;;;12.96;100.00;101263.56;4923225;29;20267;-77
2023/09/01 01:09:13;;;;;;;4.83;1.57;;;;;;;12.83;100.00;101267.03;4927114;29;20429;-77
2023/09/01 01:11:38;;;;;;;3.10;1.33;;;;;;;12.72;100.00;101239.88;4923207;29;20439;-77
2023/09/01 01:14:11;;;;;;;4.77;1.47;;;;;;;12.68;100.00;101236.78;4922810;29;20440;-77
2023/09/01 01:16:37;;;;;;;3.93;1.20;;;;;;;12.07;100.00;101131.88;4929537;29;20187;-77
2023/09/01 01:19:21;;;;;;;3.50;1.30;;;;;;;12.07;100.00;101134.56;4931420;29;20456;-77
2023/09/01 01:21:50;;;;;;;4.70;1.40;;;;;;;12.01;100.00;101151.50;4924044;29;20845;-77
2023/09/01 01:24:16;;;;;;;3.53;1.27;;;;;;;12.29;100.00;101194.41;4921528;29;20433;-76
2023/09/01 01:26:41;;;;;;;3.03;1.27;;;;;;;12.78;100.00;101271.38;4931284;29;20439;-77
2023/09/01 01:29:07;;;;;;;4.17;1.20;;;;;;;12.36;100.00;101206.06;4924120;29;20172;-77
2023/09/01 01:31:32;;;;;;;2.53;1.50;;;;;;;12.04;100.00;101170.75;4921080;29;20243;-77
2023/09/01 01:34:19;;;;;;;3.77;1.10;;;;;;;12.57;100.00;101230.13;4926562;29;20197;-78
2023/09/01 01:36:51;;;;;;;3.33;0.97;;;;;;;12.23;100.00;101193.38;4920864;29;20202;-76
2023/09/01 01:39:24;;;;;;;4.50;1.43;;;;;;;12.45;100.00;101202.13;4921014;29;20476;-76
2023/09/01 01:41:54;;;;;;;4.33;1.17;;;;;;;12.87;100.00;101254.84;4938652;28;20475;-74
2023/09/01 01:44:23;;;;;;;3.47;1.40;;;;;;;12.80;100.00;101266.63;4922821;29;20416;-74
2023/09/01 01:46:50;;;;;;;4.63;1.40;;;;;;;11.94;100.00;101136.16;4932021;29;20894;-74
2023/09/01 01:49:16;;;;;;;3.37;1.27;;;;;;;12.89;100.00;101290.44;4923180;29;20430;-74
2023/09/01 01:51:41;;;;;;;3.70;1.40;;;;;;;12.38;100.00;101212.03;4928910;29;20455;-74
2023/09/01 01:54:07;;;;;;;3.90;1.20;;;;;;;11.69;100.00;101087.47;4923851;29;20435;-74
2023/09/01 01:56:33;;;;;;;3.00;1.17;;;;;;;12.95;100.00;101280.72;4922606;29;20184;-74
2023/09/01 01:58:58;;;;;;;2.80;1.20;;;;;;;12.03;100.00;101119.84;4922371;29;20216;-74
2023/09/01 02:01:25;;;;;;;3.47;1.13;;;;;;;12.66;100.00;101244.22;4923296;29;20238;-73
2023/09/01 02:03:51;;;;;;;3.67;1.40;;;;;;;12.03;100.00;101162.88;4931585;29;20716;-74
2023/09/01 02:06:17;;;;;;;2.97;1.13;;;;;;;12.48;100.00;101223.25;4924290;29;20439;-74
2023/09/01 02:08:42;;;;;;;2.90;1.00;;;;;;;12.74;100.00;101268.25;4921467;29;20436;-74
2023/09/01 02:11:07;;;;;;;3.47;1.10;;;;;;;12.84;100.00;101302.88;4925671;29;20204;-73
2023/09/01 02:13:33;;;;;;;2.73;1.33;;;;;;;12.12;100.00;101167.03;4922003;29;20184;-74
2023/09/01 02:15:58;;;;;;;3.83;1.00;;;;;;;12.35;100.00;101197.16;4921709;29;20188;-74
2023/09/01 02:18:25;;;;;;;3.90;1.20;;;;;;;12.93;100.00;101295.44;4921294;29;20306;-74
2023/09/01 02:20:50;;;;;;;3.40;1.00;;;;;;;12.59;100.00;101257.66;4921204;29;20291;-74
2023/09/01 02:23:17;;;;;;;2.83;1.17;;;;;;;12.66;100.00;101281.91;4921512;29;20527;-74
2023/09/01 02:25:44;;;;;;;4.20;1.30;;;;;;;12.76;100.00;101279.66;4919790;29;20184;-74
2023/09/01 02:28:09;;;;;;;3.50;1.20;;;;;;;12.10;100.00;101185.25;4924157;29;20949;-74
2023/09/01 02:30:35;;;;;;;4.03;1.30;;;;;;;12.29;100.00;101234.75;4918497;29;20452;-73
2023/09/01 02:33:01;;;;;;;3.23;1.20;;;;;;;11.85;100.00;101179.50;4922980;29;20266;-74
2023/09/01 02:35:27;;;;;;;2.60;1.00;;;;;;;11.63;100.00;101160.81;4923607;29;20620;-74
2023/09/01 02:37:52;;;;;;;2.70;1.00;;;;;;;12.20;100.00;101277.13;4920883;29;20443;-74
2023/09/01 02:40:18;;;;;;;4.90;1.20;;;;;;;12.32;100.00;101261.25;4924976;29;20201;-74
2023/09/01 02:42:43;;;;;;;5.90;2.50;;;;;;;11.88;100.00;101257.91;4919816;29;20184;-74
2023/09/01 02:45:12;;;;;;;2.87;1.43;;;;;;;11.89;100.00;101248.00;4922572;29;20191;-74
2023/09/01 02:47:37;;;;;;;2.33;0.90;;;;;;;12.05;100.00;101258.44;4919147;29;20261;-74
2023/09/01 02:50:04;;;;;;;3.70;1.20;;;;;;;12.03;100.00;101260.50;4918894;29;20459;-75
2023/09/01 02:52:30;;;;;;;3.03;1.40;;;;;;;12.00;100.00;101252.81;4919427;29;20239;-74
2023/09/01 02:54:56;;;;;;;3.37;1.20;;;;;;;11.81;100.00;101246.28;4924639;29;20508;-73
2023/09/01 02:57:22;;;;;;;3.90;1.77;;;;;;;12.32;100.00;101383.13;4921702;29;20428;-74
2023/09/01 02:59:48;;;;;;;3.77;1.37;;;;;;;11.62;100.00;101274.66;4919430;29;20287;-75
2023/09/01 03:02:13;;;;;;;4.17;1.97;;;;;;;11.98;100.00;101290.66;4921406;29;20444;-74
2023/09/01 03:04:39;;;;;;;4.33;1.17;;;;;;;11.79;100.00;101280.56;4923202;29;20228;-74
2023/09/01 03:07:04;;;;;;;6.27;1.20;;;;;;;12.39;100.00;101370.56;4916313;29;20673;-74
2023/09/01 03:09:30;;;;;;;4.97;1.40;;;;;;;11.94;100.00;101313.56;4923360;29;20192;-74
2023/09/01 03:11:55;;;;;;;3.27;1.23;;;;;;;11.64;100.00;101278.00;4926069;29;20204;-74
2023/09/01 03:14:21;;;;;;;4.17;1.63;;;;;;;11.44;100.00;101272.44;4921761;29;20247;-74
2023/09/01 03:16:46;;;;;;;3.60;1.23;;;;;;;10.93;100.00;101207.34;4921360;29;20691;-74
2023/09/01 03:19:12;;;;;;;3.90;1.30;;;;;;;11.34;100.00;101271.97;4923684;29;20988;-75
2023/09/01 03:21:38;;;;;;;4.53;1.50;;;;;;;12.26;100.00;101394.69;4917940;29;20204;-74
2023/09/01 03:24:04;;;;;;;5.43;1.77;;;;;;;11.41;100.00;101285.44;4921555;29;20457;-74
2023/09/01 03:26:30;;;;;;;5.00;1.13;;;;;;;11.58;100.00;101302.94;4921715;29;20332;-74
2023/09/01 03:28:55;;;;;;;3.20;1.20;;;;;;;12.09;100.00;101409.44;4922287;29;20520;-74
2023/09/01 03:31:21;;;;;;;3.40;1.53;;;;;;;12.08;100.00;101407.78;4919895;29;20456;-74
2023/09/01 03:33:47;;;;;;;3.70;1.57;;;;;;;11.87;100.00;101392.53;4926074;29;20188;-73
2023/09/01 03:36:13;;;;;;;5.33;1.80;;;;;;;11.64;100.00;101347.84;4922514;29;20440;-74
2023/09/01 03:38:39;;;;;;;5.00;1.67;;;;;;;11.73;100.00;101324.34;4918655;29;20211;-74
2023/09/01 03:41:05;;;;;;;3.47;1.73;;;;;;;12.01;100.00;101399.69;4918333;29;20519;-74
2023/09/01 03:43:34;;;;;;;3.33;1.40;;;;;;;12.24;100.00;101429.03;4920185;29;20456;-74
2023/09/01 03:46:00;;;;;;;3.90;1.47;;;;;;;12.35;100.00;101428.50;4918526;29;20439;-75
2023/09/01 03:48:26;;;;;;;3.30;1.63;;;;;;;12.09;100.00;101396.00;4926576;29;20500;-74
2023/09/01 03:51:08;;;;;;;4.93;1.83;;;;;;;11.95;100.00;101400.47;4920520;29;20235;-74
2023/09/01 03:53:34;;;;;;;3.03;1.60;;;;;;;11.85;100.00;101390.03;4926432;29;20439;-74
2023/09/01 03:56:16;;;;;;;3.73;1.57;;;;;;;11.77;100.00;101417.00;4919749;29;20558;-73
2023/09/01 03:58:42;;;;;;;3.90;1.73;;;;;;;11.47;100.00;101319.59;4921261;29;20599;-74
2023/09/01 04:01:08;;;;;;;5.10;1.80;;;;;;;12.09;100.00;101431.81;4920143;29;20466;-74
2023/09/01 04:03:41;;;;;;;2.97;1.40;;;;;;;11.24;100.00;101311.72;4922633;29;20482;-74
2023/09/01 04:06:07;;;;;;;4.77;1.60;;;;;;;11.90;100.00;101389.44;4919596;29;20220;-75
2023/09/01 04:08:34;;;;;;;3.00;1.40;;;;;;;12.08;100.00;101418.53;4923059;29;20474;-74
2023/09/01 04:11:00;;;;;;;4.30;2.03;;;;;;;11.45;100.00;101353.84;4923244;29;20946;-75
2023/09/01 04:13:26;;;;;;;4.17;1.63;;;;;;;11.22;100.00;101306.53;4923552;29;20474;-75
2023/09/01 04:15:51;;;;;;;4.20;1.40;;;;;;;11.79;100.00;101414.94;4920634;29;20435;-74
2023/09/01 04:18:17;;;;;;;3.63;1.50;;;;;;;11.33;100.00;101353.53;4923351;29;20216;-75
2023/09/01 04:20:47;;;;;;;6.07;1.70;;;;;;;11.05;100.00;101316.72;4922603;29;20216;-75
2023/09/01 04:23:14;;;;;;;3.50;1.73;;;;;;;11.73;100.00;101434.53;4931961;29;20425;-76
2023/09/01 04:25:39;;;;;;;5.03;1.83;;;;;;;11.00;100.00;101334.41;4924840;29;20494;-75
2023/09/01 04:28:04;;;;;;;6.00;2.60;;;;;;;11.01;100.00;101342.25;4924988;29;20478;-75
2023/09/01 04:30:30;;;;;;;4.20;2.20;;;;;;;10.83;100.00;101310.47;4923234;29;20219;-75
2023/09/01 04:32:55;;;;;;;4.07;2.00;;;;;;;11.37;100.00;101405.00;4922562;29;20203;-75
2023/09/01 04:35:21;;;;;;;6.93;2.40;;;;;;;10.86;100.00;101323.50;4925392;29;20189;-75
2023/09/01 04:37:46;;;;;;;4.43;2.30;;;;;;;11.35;100.00;101399.03;4923049;29;20203;-76
2023/09/01 04:40:12;;;;;;;4.20;2.03;;;;;;;11.12;100.00;101332.06;4925514;29;20690;-75
2023/09/01 04:42:37;;;;;;;3.50;2.37;;;;;;;11.67;100.00;101448.75;4926767;29;20719;-75
2023/09/01 04:45:04;;;;;;;3.53;2.10;;;;;;;11.75;100.00;101456.69;4923044;29;20544;-75
2023/09/01 04:47:29;;;;;;;5.00;1.87;;;;;;;11.10;100.00;101353.72;4925624;29;20204;-75
2023/09/01 04:49:55;;;;;;;4.30;1.90;;;;;;;10.96;100.00;101341.97;4925232;29;20460;-76
2023/09/01 04:52:21;;;;;;;4.70;2.07;;;;;;;10.83;100.00;101350.72;4924264;29;20332;-75
2023/09/01 04:54:46;;;;;;;3.60;1.80;;;;;;;10.74;100.00;101318.84;4923397;29;20194;-75
2023/09/01 04:57:11;;;;;;;4.90;1.90;;;;;;;11.01;100.00;101370.94;4922251;29;20205;-75
2023/09/01 04:59:37;;;;;;;4.30;1.87;;;;;;;10.96;100.00;101360.78;4925510;29;20282;-76
2023/09/01 05:02:02;;;;;;;3.20;2.03;;;;;;;10.92;100.00;101356.81;4923720;29;20267;-76
2023/09/01 05:04:28;;;;;;;3.90;1.80;;;;;;;10.89;100.00;101362.56;4923187;29;20218;-75
2023/09/01 05:06:53;;;;;;;5.20;2.30;;;;;;;11.57;100.00;101441.00;4925048;29;20654;-75
2023/09/01 05:09:19;;;;;;;3.83;2.03;;;;;;;11.20;100.00;101405.25;4923792;29;20199;-75
2023/09/01 05:11:45;;;;;;;4.50;2.03;;;;;;;10.88;100.00;101341.25;4923788;29;20261;-75
2023/09/01 05:14:10;;;;;;;5.27;2.80;;;;;;;11.60;100.00;101434.41;4924666;29;20856;-75
2023/09/01 05:16:35;;;;;;;4.63;2.43;;;;;;;11.97;100.00;101477.19;4925731;29;20191;-74
2023/09/01 05:19:01;;;;;;;4.40;2.27;;;;;;;11.12;100.00;101391.13;4919745;29;20208;-75
2023/09/01 05:21:26;;;;;;;5.50;2.37;;;;;;;11.04;100.00;101395.56;4922220;29;20212;-75
2023/09/01 05:23:52;;;;;;;6.30;2.37;;;;;;;10.47;100.00;101312.28;4921231;29;20192;-76
2023/09/01 05:26:17;;;;;;;4.93;1.90;;;;;;;11.59;100.00;101498.06;4923933;29;20196;-76
2023/09/01 05:28:43;;;;;;;4.17;2.47;;;;;;;10.89;100.00;101388.56;4923109;29;20270;-75
2023/09/01 05:31:08;;;;;;;6.40;2.63;;;;;;;10.87;100.00;101407.53;4925449;29;20706;-75
2023/09/01 05:33:33;;;;;;;6.33;2.87;;;;;;;11.41;100.00;101468.91;4925116;29;20558;-75
2023/09/01 05:35:59;;;;;;;5.17;2.57;;;;;;;11.75;100.00;101565.03;4925402;29;20199;-75
2023/09/01 05:38:24;;;;;;;4.50;2.53;;;;;;;11.59;100.00;101516.03;4921778;29;20212;-75
2023/09/01 05:41:01;;;;;;;7.10;2.23;;;;;;;11.86;100.00;101552.97;4921296;29;20290;-75
2023/09/01 05:43:27;;;;;;;4.67;2.40;;;;;;;11.29;100.00;101478.50;4935628;28;20191;-75
2023/09/01 05:45:52;;;;;;;6.13;3.03;;;;;;;11.49;100.00;101489.47;4925389;29;20983;-75
2023/09/01 05:48:18;;;;;;;6.57;1.83;;;;;;;11.31;100.00;101488.03;4922790;29;20424;-75
2023/09/01 05:50:44;;;;;;;9.73;2.80;;;;;;;12.32;100.00;101608.25;4920002;29;20622;-75
2023/09/01 05:53:10;;;;;;;5.60;2.37;;;;;;;11.65;100.00;101512.59;4922084;29;20288;-75
2023/09/01 05:55:39;;;;;;;3.67;2.10;;;;;;;12.31;100.00;101617.38;4924028;29;20522;-75
2023/09/01 05:58:04;;;;;;;6.10;2.20;;;;;;;12.20;100.00;101583.72;4920481;29;20428;-75
2023/09/01 06:00:29;;;;;;;4.13;2.00;;;;;;;11.89;100.00;101506.91;4920790;29;20460;-75
2023/09/01 06:02:56;;;;;;;5.30;2.50;;;;;;;12.16;100.00;101560.94;4921012;29;20191;-74
2023/09/01 06:05:22;;;;;;;5.07;2.10;;;;;;;12.40;100.00;101598.22;4924851;29;20201;-75
2023/09/01 06:07:48;;;;;;;5.07;1.77;;;;;;;12.27;100.00;101520.09;4923681;29;20441;-75
2023/09/01 06:10:15;;;;;;;4.47;1.90;;;;;;;13.05;100.00;101654.69;4922411;29;20685;-75
2023/09/01 06:12:41;;;;;;;6.17;1.97;;;;;;;12.60;100.00;101584.13;4926848;29;20519;-75
2023/09/01 06:15:07;;;;;;;4.87;1.97;;;;;;;12.76;100.00;101608.06;4923184;29;20519;-75
2023/09/01 06:17:33;;;;;;;4.53;1.70;;;;;;;12.86;100.00;101610.41;4923405;29;20448;-75
2023/09/01 06:19:58;;;;;;;6.60;2.30;;;;;;;12.80;100.00;101573.50;4922706;29;20851;-75
2023/09/01 06:22:24;;;;;;;6.13;2.30;;;;;;;13.10;100.00;101625.28;4924368;29;20187;-75
2023/09/01 06:24:49;;;;;;;5.27;2.27;;;;;;;13.49;100.00;101656.28;4923395;29;20192;-74
2023/09/01 06:27:15;;;;;;;5.07;2.13;;;;;;;12.76;100.00;101529.19;4921580;29;20555;-75
2023/09/01 06:29:40;;;;;;;5.93;1.63;;;;;;;13.21;100.00;101607.75;4922008;29;20271;-75
2023/09/01 06:32:08;;;;;;;5.50;1.90;;;;;;;13.30;100.00;101603.91;4924475;29;20202;-74
2023/09/01 06:34:34;;;;;;;3.57;1.57;;;;;;;13.06;100.00;101552.16;4917686;29;20660;-75
2023/09/01 06:36:59;;;;;;;5.70;2.13;;;;;;;13.51;100.00;101624.53;4925796;29;20435;-75
2023/09/01 06:39:24;;;;;;;6.93;1.83;;;;;;;12.66;100.00;101481.06;4922765;29;20219;-75
2023/09/01 06:41:50;;;;;;;6.20;1.70;;;;;;;13.12;100.00;101562.13;4924421;29;20295;-75
2023/09/01 06:44:15;;;;;;;4.83;1.70;;;;;;;13.63;100.00;101636.44;4922715;29;20623;-75
2023/09/01 06:46:41;;;;;;;3.23;1.40;;;;;;;13.71;100.00;101635.44;4922743;29;20604;-75
2023/09/01 06:49:06;;;;;;;7.07;2.17;;;;;;;12.99;100.00;101515.41;4921731;29;20241;-75
2023/09/01 06:51:32;;;;;;;7.73;2.03;;;;;;;13.01;100.00;101492.66;4920530;29;20589;-75
2023/09/01 06:53:57;;;;;;;7.63;2.30;;;;;;;13.54;100.00;101556.78;4922288;29;20661;-76
2023/09/01 06:56:22;;;;;;;3.60;1.40;;;;;;;13.67;100.00;101558.69;4928428;29;20198;-76
2023/09/01 06:58:48;;;;;;;5.90;2.77;;;;;;;14.03;100.00;101631.25;4922006;29;20208;-76
2023/09/01 07:01:15;;;;;;;6.13;2.70;;;;;;;13.78;100.00;101590.47;4921060;29;20701;-75
2023/09/01 07:03:40;;;;;;;6.13;2.87;;;;;;;13.24;100.00;101468.09;4921305;29;20279;-76
2023/09/01 07:06:06;;;;;;;5.07;2.30;;;;;;;13.88;100.00;101563.94;4921505;29;20439;-76
2023/09/01 07:08:32;;;;;;;7.70;2.57;;;;;;;13.44;100.00;101502.44;4923272;29;20188;-77
2023/09/01 07:11:05;;;;;;;5.20;2.13;;;;;;;13.71;100.00;101539.25;4922945;29;20674;-77
2023/09/01 07:13:31;;;;;;;5.37;2.00;;;;;;;13.42;100.00;101474.84;4934948;28;20191;-77
2023/09/01 07:15:57;;;;;;;4.53;1.90;;;;;;;13.84;100.00;101551.09;4922102;29;20440;-77
2023/09/01 07:18:23;;;;;;;5.53;2.10;;;;;;;13.66;100.00;101501.25;4920875;29;20476;-77
2023/09/01 07:20:49;;;;;;;4.23;1.90;;;;;;;14.12;100.00;101551.78;4916641;29;20464;-77
2023/09/01 07:23:15;;;;;;;6.40;2.13;;;;;;;14.57;100.00;101594.41;4920982;29;20432;-76
2023/09/01 07:25:42;;;;;;;6.43;2.33;;;;;;;14.38;100.00;101561.78;4921851;29;20806;-77
2023/09/01 07:28:07;;;;;;;4.83;2.10;;;;;;;13.95;100.00;101485.78;4935885;28;20192;-77
2023/09/01 07:30:33;;;;;;;6.67;1.87;;;;;;;14.25;100.00;101500.53;4923018;29;20576;-77
2023/09/01 07:32:59;;;;;;;4.00;1.43;;;;;;;14.27;100.00;101502.19;4946852;23;20234;-75
2023/09/01 07:35:25;;;;;;;4.70;1.83;;;;;;;12.93;100.00;101273.88;4961065;28;20842;-77
2023/09/01 07:37:50;;;;;;;4.40;1.67;;;;;;;13.87;100.00;101426.63;4959701;28;20453;-76
2023/09/01 07:40:16;;;;;;;4.70;1.70;;;;;;;13.44;100.00;101340.75;4960775;28;20214;-76
2023/09/01 07:42:41;;;;;;;3.27;1.70;;;;;;;14.10;100.00;101421.66;4962264;28;20552;-76
2023/09/01 07:45:07;;;;;;;4.80;1.57;;;;;;;12.62;100.00;101140.72;4960147;28;20237;-77
2023/09/01 07:47:33;;;;;;;3.40;1.50;;;;;;;12.56;100.00;101130.78;4961579;28;20191;-79
2023/09/01 07:49:58;;;;;;;3.70;1.60;;;;;;;14.29;100.00;101400.25;4962998;28;20293;-78
2023/09/01 07:52:25;;;;;;;4.57;1.60;;;;;;;13.61;100.00;101269.22;4960741;28;20194;-78
2023/09/01 07:54:51;;;;;;;5.23;2.93;;;;;;;13.45;100.00;101250.78;4962361;28;20194;-79
2023/09/01 07:57:16;;;;;;;4.67;1.83;;;;;;;12.54;100.00;101066.38;4967740;28;20794;-78
2023/09/01 07:59:42;;;;;;;4.60;2.40;;;;;;;13.65;100.00;101272.31;4961486;28;20222;-79
2023/09/01 08:02:07;;;;;;;3.80;2.13;;;;;;;13.64;100.00;101251.81;4962413;28;20183;-79
2023/09/01 08:04:33;;;;;;;7.60;1.90;;;;;;;13.33;100.00;101170.56;4961571;28;20191;-79
2023/09/01 08:06:59;;;;;;;2.73;1.30;;;;;;;14.48;100.00;101340.84;4961768;28;20187;-78
2023/09/01 08:09:25;;;;;;;5.13;1.73;;;;;;;13.24;100.00;101115.22;4968818;28;20182;-78
2023/09/01 08:11:51;;;;;;;4.07;1.37;;;;;;;13.41;100.00;101142.59;4962742;28;20969;-78
2023/09/01 08:14:17;;;;;;;4.23;1.30;;;;;;;15.47;100.00;101421.69;4961769;28;20442;-78
2023/09/01 08:16:42;;;;;;;5.30;1.57;;;;;;;13.03;100.00;101030.13;4962064;28;20451;-79
2023/09/01 08:19:08;;;;;;;5.23;2.00;;;;;;;12.95;100.00;101026.81;4960611;28;20661;-78
2023/09/01 08:21:33;;;;;;;3.87;1.20;;;;;;;13.60;100.00;101146.28;4969128;28;20206;-79
2023/09/01 08:23:59;;;;;;;4.00;1.30;;;;;;;14.04;100.00;101176.22;4959834;28;20326;-79
2023/09/01 08:26:25;;;;;;;3.53;1.40;;;;;;;14.72;100.00;101254.81;4962665;28;20272;-79
2023/09/01 08:28:51;;;;;;;6.67;1.60;;;;;;;14.40;100.00;101224.22;4961878;28;20481;-79
2023/09/01 08:31:16;;;;;;;3.80;1.30;;;;;;;14.13;100.00;101170.38;4961316;28;20211;-79
2023/09/01 08:33:43;;;;;;;3.50;1.60;;;;;;;14.48;100.00;101227.50;4961545;28;20253;-79
2023/09/01 08:36:09;;;;;;;4.30;1.80;;;;;;;15.25;100.00;101343.66;4962512;28;20202;-79
2023/09/01 08:38:35;;;;;;;5.20;1.70;;;;;;;13.38;100.00;101000.22;4963048;28;20454;-79
2023/09/01 08:41:02;;;;;;;2.50;1.10;;;;;;;16.06;100.00;101406.13;4960697;28;20569;-79
2023/09/01 08:43:33;;;;;;;2.80;1.30;;;;;;;14.43;100.00;101189.50;4962589;28;20433;-79
2023/09/01 08:46:00;;;;;;;8.53;2.67;;;;;;;13.86;100.00;101083.38;4978055;28;20461;-79
2023/09/01 08:48:26;;;;;;;3.47;1.53;;;;;;;13.62;100.00;101006.72;4961036;28;20480;-79
2023/09/01 08:50:52;;;;;;;3.93;1.47;;;;;;;16.33;100.00;101442.72;4962679;28;20453;-80
2023/09/01 08:53:18;;;;;;;3.13;1.43;;;;;;;14.40;100.00;101148.66;4962549;28;20783;-79
2023/09/01 08:55:44;;;;;;;4.27;1.40;;;;;;;14.96;100.00;101212.72;4962348;28;20434;-80
2023/09/01 08:58:09;;;;;;;2.77;1.23;;;;;;;16.24;100.00;101442.19;4963880;28;20438;-79
2023/09/01 09:00:35;;;;;;;2.87;1.07;;;;;;;14.50;100.00;101134.69;4965129;28;20213;-79
2023/09/01 09:03:00;;;;;;;6.03;1.57;;;;;;;13.70;100.00;100992.19;4971218;28;20182;-80
2023/09/01 09:05:27;;;;;;;2.73;1.00;;;;;;;16.03;100.00;101364.94;4966519;28;20829;-79
2023/09/01 09:08:06;;;;;;;2.93;1.20;;;;;;;13.72;100.00;100968.56;4982120;28;20996;-79
2023/09/01 09:10:46;;;;;;;4.20;1.30;;;;;;;14.41;100.00;101101.75;4964954;28;20489;-79
2023/09/01 09:13:28;;;;;;;2.97;1.00;;;;;;;14.75;100.00;101134.75;4980235;28;20433;-79
2023/09/01 09:16:14;;;;;;;4.40;1.43;;;;;;;16.16;100.00;101369.38;4964502;28;20429;-80
2023/09/01 09:18:44;;;;;;;3.27;1.20;;;;;;;14.65;100.00;101113.63;4965434;28;20500;-80
2023/09/01 09:21:23;;;;;;;2.83;1.20;;;;;;;16.44;100.00;101365.38;4963925;28;20977;-80
2023/09/01 09:23:48;;;;;;;3.13;1.10;;;;;;;15.04;100.00;101155.72;4966811;28;20426;-80
2023/09/01 09:26:14;;;;;;;3.10;1.20;;;;;;;14.19;100.00;101058.91;4965205;28;20419;-80
2023/09/01 09:28:39;;;;;;;2.77;1.03;;;;;;;15.27;100.00;101219.94;4972361;28;20209;-80
2023/09/01 09:31:05;;;;;;;3.63;1.40;;;;;;;14.51;100.00;101145.25;4966720;28;20757;-80
2023/09/01 09:33:32;;;;;;;2.90;1.43;;;;;;;14.13;100.00;101054.38;4966329;28;20977;-80
2023/09/01 09:35:58;;;;;;;4.30;1.40;;;;;;;14.57;100.00;101136.31;4964901;28;20737;-79
2023/09/01 09:38:38;;;;;;;2.83;0.90;;;;;;;14.66;100.00;101139.59;4964449;28;20548;-80
2023/09/01 09:41:04;;;;;;;3.20;1.17;;;;;;;15.32;100.00;101268.75;4964320;28;20439;-80
2023/09/01 09:43:42;;;;;;;3.47;1.43;;;;;;;15.39;100.00;101336.31;4965714;28;20972;-79
2023/09/01 09:46:08;;;;;;;3.87;1.13;;;;;;;14.76;100.00;101174.22;4965240;28;20182;-80
2023/09/01 09:48:35;;;;;;;3.60;1.20;;;;;;;14.56;100.00;101123.88;4964361;28;20438;-80
2023/09/01 09:51:02;;;;;;;3.83;1.07;;;;;;;14.91;100.00;101178.25;4966423;28;20277;-80
2023/09/01 09:53:33;;;;;;;3.03;1.43;;;;;;;16.28;100.00;101426.31;4966773;28;20429;-80
2023/09/01 09:56:14;;;;;;;9.43;1.80;;;;;;;14.74;100.00;101187.91;4964841;28;20421;-79
2023/09/01 09:58:40;;;;;;;3.77;1.40;;;;;;;14.81;100.00;101171.66;4964515;28;20477;-80
2023/09/01 10:01:27;;;;;;;4.57;1.67;;;;;;;14.80;100.00;101146.53;4969773;28;20454;-80
2023/09/01 10:03:54;;;;;;;3.60;1.40;;;;;;;15.31;100.00;101260.88;4962037;28;20439;-80
2023/09/01 10:06:19;;;;;;;3.83;1.23;;;;;;;14.88;100.00;101181.38;4969970;28;20516;-79
2023/09/01 10:08:45;;;;;;;4.43;1.30;;;;;;;14.17;100.00;101062.84;4965577;28;20930;-79
2023/09/01 10:11:14;;;;;;;4.47;1.20;;;;;;;15.02;100.00;101194.81;4963205;28;20765;-80
2023/09/01 10:13:43;;;;;;;7.70;2.60;;;;;;;14.44;100.00;101063.53;4963264;28;20190;-80
2023/09/01 10:16:10;;;;;;;3.47;1.30;;;;;;;14.87;100.00;101114.09;4965308;28;20481;-80
2023/09/01 10:18:36;;;;;;;3.30;1.00;;;;;;;16.00;100.00;101311.25;4963875;28;20490;-80
2023/09/01 10:21:02;;;;;;;3.20;1.30;;;;;;;15.31;100.00;101190.63;4965045;28;20553;-79
2023/09/01 10:23:28;;;;;;;4.07;1.20;;;;;;;14.18;100.00;100951.22;4964192;28;20259;-80
2023/09/01 10:26:28;;;;;;;2.57;0.83;;;;;;;16.83;100.00;101369.50;4965929;28;20514;-79
2023/09/01 10:29:01;;;;;;;2.70;0.80;;;;;;;16.03;100.00;101231.53;4922696;28;20191;-80
2023/09/01 10:31:28;;;;;;;2.10;0.70;;;;;;;16.82;100.00;101302.84;4963481;28;20552;-80
2023/09/01 10:34:08;;;;;;;3.30;1.10;;;;;;;16.26;100.00;101185.66;4961934;28;20474;-80
2023/09/01 10:36:34;;;;;;;3.07;0.90;;;;;;;16.98;100.00;101270.72;4963385;28;20413;-79
2023/09/01 10:39:23;;;;;;;2.13;0.73;;;;;;;16.55;100.00;101247.31;4963730;28;20470;-80
2023/09/01 10:42:03;;;;;;;2.77;0.97;;;;;;;17.15;100.00;101277.16;4964527;28;20452;-80
2023/09/01 10:44:48;;;;;;;1.90;0.70;;;;;;;17.35;100.00;101302.06;4963302;28;20437;-80
2023/09/01 10:47:32;;;;;;;2.57;0.97;;;;;;;17.23;100.00;101295.78;4949278;28;20593;-80
2023/09/01 10:49:59;;;;;;;2.10;0.77;;;;;;;17.20;100.00;101279.19;4962942;28;20480;-80
2023/09/01 10:52:26;;;;;;;2.90;0.90;;;;;;;16.77;100.00;101169.97;4964778;28;20922;-80
2023/09/01 10:55:03;;;;;;;2.37;0.80;;;;;;;17.51;100.00;101264.50;4963638;28;20427;-80
2023/09/01 10:57:41;;;;;;;2.83;0.77;;;;;;;17.62;100.00;101258.25;4969897;28;20803;-80
2023/09/01 11:00:32;;;;;;;2.90;0.93;;;;;;;17.00;100.00;101154.81;4962699;28;20496;-80
2023/09/01 11:03:29;;;;;;;2.77;0.80;;;;;;;17.72;100.00;101252.25;4963504;28;21152;-80
2023/09/01 11:06:03;;;;;;;1.80;0.60;;;;;;;17.02;100.00;101131.84;4969838;28;20430;-80
2023/09/01 11:08:30;;;;;;;3.03;0.97;;;;;;;17.52;100.00;101196.44;4962970;28;20817;-80
2023/09/01 11:11:05;;;;;;;3.03;0.80;;;;;;;17.52;100.00;101155.78;4962685;28;20537;-80
2023/09/01 11:13:31;;;;;;;2.50;0.80;;;;;;;17.31;100.00;101111.09;4962039;28;21253;-79
2023/09/01 11:15:56;;;;;;;2.33;0.90;;;;;;;17.76;100.00;101200.00;4970322;28;20477;-79
2023/09/01 11:18:23;;;;;;;2.53;1.00;;;;;;;18.09;100.00;101231.13;4965443;28;20213;-80